Time;durP1;ratioP1;P1;durP2;ratioP2;P2;SDS_P1;SDS_P2;PMS_P1;PMS_P2;Temp;Humidity;BMP_temperature;BMP_pressure;BME280_temperature;BME280_humidity;BME280_pressure;Samples;Min_cycle;Max_cycle;Signal;HPM_P1;HPM_P2
2023/04/03 00:00:34;;;;;;;4.80;3.63;;;1.00;64.60;;;;;;6245034;28;20234;-80
2023/04/03 00:03:38;;;;;;;4.47;4.07;;;1.00;64.40;;;;;;6262626;28;20396;-82
2023/04/03 00:06:44;;;;;;;4.70;3.80;;;1.00;64.70;;;;;;6253650;28;20242;-81
2023/04/03 00:09:47;;;;;;;6.10;3.70;;;1.00;64.70;;;;;;6257268;28;20256;-79
2023/04/03 00:12:52;;;;;;;6.70;4.00;;;1.00;64.60;;;;;;6247940;28;20230;-82
2023/04/03 00:15:55;;;;;;;6.40;3.80;;;0.90;64.60;;;;;;6245793;28;20237;-80
2023/04/03 00:18:58;;;;;;;3.67;3.50;;;0.90;64.50;;;;;;6246854;28;20283;-81
2023/04/03 00:22:01;;;;;;;4.03;3.73;;;0.80;64.70;;;;;;6239235;28;20235;-82
2023/04/03 00:25:06;;;;;;;3.80;3.50;;;0.80;64.70;;;;;;6251982;28;20309;-80
2023/04/03 00:28:10;;;;;;;4.17;3.97;;;0.80;64.70;;;;;;6235772;28;20226;-81
2023/04/03 00:31:16;;;;;;;4.13;3.90;;;0.80;64.70;;;;;;6250059;28;20734;-81
2023/04/03 00:34:19;;;;;;;4.40;4.00;;;0.80;64.50;;;;;;6245664;28;20234;-79
2023/04/03 00:37:22;;;;;;;4.90;4.00;;;0.80;64.80;;;;;;6247606;28;20234;-79
2023/04/03 00:40:27;;;;;;;4.13;3.87;;;0.80;64.40;;;;;;6238228;28;20325;-80
2023/04/03 00:43:31;;;;;;;7.07;4.27;;;0.80;64.60;;;;;;6249970;28;20397;-82
2023/04/03 00:46:35;;;;;;;3.90;3.70;;;0.80;64.70;;;;;;6240437;28;20269;-79
2023/04/03 00:49:39;;;;;;;4.03;3.67;;;0.80;64.60;;;;;;6245700;28;20404;-83
2023/04/03 00:52:42;;;;;;;4.27;3.83;;;0.70;64.60;;;;;;6249950;28;20230;-79
2023/04/03 00:55:47;;;;;;;6.37;4.67;;;0.70;64.60;;;;;;6246547;28;20604;-83
2023/04/03 00:58:57;;;;;;;4.83;4.40;;;0.60;64.60;;;;;;6235569;28;20242;-80
2023/04/03 01:02:01;;;;;;;3.97;3.87;;;0.60;64.60;;;;;;6258646;28;20640;-79
2023/04/03 01:05:06;;;;;;;4.40;3.60;;;0.60;64.70;;;;;;6227004;28;20332;-81
2023/04/03 01:08:09;;;;;;;4.10;3.50;;;0.60;65.00;;;;;;6249307;28;20231;-82
2023/04/03 01:11:12;;;;;;;3.90;3.70;;;0.60;64.80;;;;;;6253062;28;20241;-82
2023/04/03 01:14:16;;;;;;;3.30;3.27;;;0.50;65.00;;;;;;6252004;28;20260;-83
2023/04/03 01:17:31;;;;;;;6.53;4.10;;;0.50;65.10;;;;;;6250114;28;20238;-80
2023/04/03 01:21:11;;;;;;;4.47;4.17;;;0.50;65.20;;;;;;6249209;28;20802;-83
2023/04/03 01:24:32;;;;;;;3.97;3.67;;;0.60;64.70;;;;;;6245016;28;20613;-82
2023/04/03 01:27:35;;;;;;;4.50;4.00;;;0.50;64.80;;;;;;6239937;28;20262;-81
2023/04/03 01:30:45;;;;;;;4.33;4.00;;;0.50;65.00;;;;;;6257444;28;20234;-81
2023/04/03 01:33:50;;;;;;;7.40;4.40;;;0.40;65.20;;;;;;6273222;28;20230;-76
2023/04/03 01:36:53;;;;;;;5.20;4.00;;;0.40;65.40;;;;;;6281610;28;20289;-76
2023/04/03 01:39:56;;;;;;;4.13;4.03;;;0.40;65.40;;;;;;6281633;28;20219;-77
2023/04/03 01:42:59;;;;;;;4.70;4.30;;;0.40;65.60;;;;;;6290215;28;20232;-79
2023/04/03 01:46:02;;;;;;;4.30;3.93;;;0.40;65.90;;;;;;6274246;28;20245;-78
2023/04/03 01:49:07;;;;;;;4.27;3.90;;;0.40;65.70;;;;;;6275672;28;20301;-75
2023/04/03 01:52:10;;;;;;;4.67;4.23;;;0.40;65.70;;;;;;6279386;28;20261;-82
2023/04/03 01:55:14;;;;;;;5.13;4.10;;;0.30;65.80;;;;;;6250936;28;20714;-78
2023/04/03 01:58:18;;;;;;;4.30;4.10;;;0.30;65.90;;;;;;6252681;28;20613;-79
2023/04/03 02:01:21;;;;;;;4.43;4.23;;;0.30;65.90;;;;;;6253362;28;20245;-79
2023/04/03 02:04:25;;;;;;;4.10;3.90;;;0.30;66.10;;;;;;6250662;28;20380;-77
2023/04/03 02:07:29;;;;;;;4.13;3.83;;;0.20;66.20;;;;;;6246835;28;20222;-83
2023/04/03 02:10:32;;;;;;;4.60;4.20;;;0.20;66.70;;;;;;6243837;28;20803;-83
2023/04/03 02:13:35;;;;;;;4.70;4.30;;;0.20;66.60;;;;;;6252968;28;20234;-82
2023/04/03 02:16:38;;;;;;;4.30;4.00;;;0.20;66.90;;;;;;6240740;28;20237;-79
2023/04/03 02:19:43;;;;;;;4.30;4.00;;;0.10;66.90;;;;;;6279926;28;20234;-77
2023/04/03 02:22:47;;;;;;;4.07;3.87;;;0.10;66.80;;;;;;6290240;28;20274;-77
2023/04/03 02:25:50;;;;;;;4.90;4.40;;;0.00;66.80;;;;;;6274159;28;20257;-76
2023/04/03 02:28:53;;;;;;;4.17;3.80;;;0.00;67.00;;;;;;6288690;28;20226;-76
2023/04/03 02:31:56;;;;;;;4.83;4.43;;;0.00;67.00;;;;;;6286079;28;20301;-76
2023/04/03 02:35:01;;;;;;;4.73;3.97;;;0.00;67.10;;;;;;6278209;28;20252;-75
2023/04/03 02:38:04;;;;;;;4.67;4.40;;;0.00;67.40;;;;;;6258333;28;20230;-81
2023/04/03 02:41:12;;;;;;;4.47;4.07;;;0.00;67.50;;;;;;6253007;28;20242;-82
2023/04/03 02:44:16;;;;;;;3.80;3.70;;;0.00;67.50;;;;;;6247836;28;20503;-81
2023/04/03 02:47:19;;;;;;;4.87;4.60;;;0.00;67.50;;;;;;6236245;28;20333;-80
2023/04/03 02:50:24;;;;;;;5.27;4.77;;;0.00;67.50;;;;;;6239849;28;20230;-82
2023/04/03 02:53:27;;;;;;;5.53;4.30;;;0.00;67.40;;;;;;6255148;28;20975;-82
2023/04/03 02:56:30;;;;;;;5.40;4.23;;;0.00;67.50;;;;;;6250774;28;20236;-82
2023/04/03 02:59:33;;;;;;;5.33;4.30;;;0.00;67.50;;;;;;6254653;28;20356;-80
2023/04/03 03:02:36;;;;;;;4.47;4.07;;;0.00;67.60;;;;;;6249756;28;20242;-80
2023/04/03 03:05:41;;;;;;;7.77;4.43;;;0.00;67.50;;;;;;6259326;28;20613;-78
2023/04/03 03:08:44;;;;;;;4.47;4.17;;;0.00;67.70;;;;;;6239495;28;20227;-81
2023/04/03 03:11:49;;;;;;;10.83;4.17;;;0.00;67.70;;;;;;6254221;28;20405;-83
2023/04/03 03:14:52;;;;;;;4.10;3.90;;;0.00;67.60;;;;;;6253609;28;20233;-80
2023/04/03 03:17:55;;;;;;;4.17;3.90;;;0.00;67.50;;;;;;6253759;28;20233;-81
2023/04/03 03:21:02;;;;;;;4.67;4.30;;;0.00;67.70;;;;;;6256431;28;20257;-82
2023/04/03 03:24:05;;;;;;;4.50;4.10;;;-0.10;67.70;;;;;;6250674;28;20230;-83
2023/04/03 03:27:11;;;;;;;5.87;4.17;;;-0.10;67.80;;;;;;6233261;28;20249;-81
2023/04/03 03:30:15;;;;;;;4.30;4.00;;;-0.10;67.80;;;;;;6253873;28;20317;-80
2023/04/03 03:33:18;;;;;;;5.23;4.10;;;-0.10;67.80;;;;;;6241598;28;20271;-81
2023/04/03 03:36:22;;;;;;;4.43;4.07;;;-0.10;67.70;;;;;;6241452;28;20781;-80
2023/04/03 03:39:25;;;;;;;4.20;4.00;;;-0.10;68.00;;;;;;6242576;28;20613;-81
2023/04/03 03:42:28;;;;;;;4.53;4.30;;;-0.10;68.00;;;;;;6251910;28;20242;-82
2023/04/03 03:45:32;;;;;;;4.50;4.07;;;-0.10;67.80;;;;;;6242338;28;20710;-81
2023/04/03 03:48:35;;;;;;;6.50;3.97;;;-0.10;67.80;;;;;;6253721;28;20633;-79
2023/04/03 03:51:41;;;;;;;3.93;3.73;;;-0.10;68.00;;;;;;6240076;28;20246;-81
2023/04/03 03:54:44;;;;;;;4.53;4.13;;;-0.10;67.80;;;;;;6240485;28;20233;-80
2023/04/03 03:57:47;;;;;;;4.27;3.97;;;-0.10;67.90;;;;;;6245302;28;20523;-82
2023/04/03 04:00:50;;;;;;;5.83;4.03;;;-0.10;68.10;;;;;;6249134;28;20238;-81
2023/04/03 04:03:54;;;;;;;4.37;4.07;;;-0.10;67.90;;;;;;6243781;28;20231;-82
2023/04/03 04:07:00;;;;;;;5.90;4.10;;;-0.10;67.80;;;;;;6249015;28;20250;-79
2023/04/03 04:10:04;;;;;;;4.73;4.43;;;-0.10;68.00;;;;;;6258840;28;20240;-77
2023/04/03 04:13:07;;;;;;;4.70;4.30;;;-0.20;67.80;;;;;;6252027;28;20539;-76
2023/04/03 04:16:11;;;;;;;6.87;4.13;;;-0.20;67.80;;;;;;6252725;28;20241;-78
2023/04/03 04:19:14;;;;;;;4.77;4.57;;;-0.20;67.80;;;;;;6247985;28;20234;-77
2023/04/03 04:22:18;;;;;;;5.23;4.50;;;-0.20;67.80;;;;;;6263284;28;20245;-78
2023/04/03 04:25:21;;;;;;;7.47;4.40;;;-0.20;68.10;;;;;;6249090;28;20231;-78
2023/04/03 04:28:24;;;;;;;8.93;5.17;;;-0.20;67.80;;;;;;6254180;28;20424;-79
2023/04/03 04:31:27;;;;;;;9.87;5.03;;;-0.20;68.10;;;;;;6249851;28;20250;-75
2023/04/03 04:34:31;;;;;;;6.87;4.70;;;-0.30;68.20;;;;;;6251906;28;20736;-77
2023/04/03 04:37:35;;;;;;;4.13;3.93;;;-0.30;68.40;;;;;;6255028;28;20233;-78
2023/04/03 04:40:38;;;;;;;4.70;4.30;;;-0.30;68.30;;;;;;6252722;28;20814;-77
2023/04/03 04:43:41;;;;;;;4.83;4.43;;;-0.30;68.50;;;;;;6246242;28;20709;-78
2023/04/03 04:46:44;;;;;;;4.47;4.20;;;-0.40;68.60;;;;;;6256213;28;20239;-77
2023/04/03 04:49:48;;;;;;;5.17;4.30;;;-0.30;68.60;;;;;;6254934;28;20242;-77
2023/04/03 04:52:54;;;;;;;4.30;4.07;;;-0.30;68.90;;;;;;6241367;28;20241;-78
2023/04/03 04:55:57;;;;;;;4.73;4.33;;;-0.30;68.90;;;;;;6235143;28;20241;-78
2023/04/03 04:59:00;;;;;;;6.67;4.73;;;-0.30;68.80;;;;;;6241979;28;20234;-77
2023/04/03 05:02:03;;;;;;;5.30;3.93;;;-0.30;69.00;;;;;;6247928;28;20245;-78
2023/04/03 05:05:07;;;;;;;4.23;3.90;;;-0.30;69.00;;;;;;6249465;28;20733;-77
2023/04/03 05:08:11;;;;;;;6.77;4.13;;;-0.20;69.00;;;;;;6251503;28;20544;-76
2023/04/03 05:11:14;;;;;;;4.47;4.00;;;-0.10;68.90;;;;;;6257131;28;20265;-77
2023/04/03 05:14:18;;;;;;;4.10;3.70;;;-0.10;68.90;;;;;;6255437;28;20242;-78
2023/04/03 05:17:21;;;;;;;4.50;4.10;;;-0.10;68.90;;;;;;6247795;28;20239;-78
2023/04/03 05:20:24;;;;;;;6.13;3.80;;;-0.10;68.90;;;;;;6255203;28;20354;-78
2023/04/03 05:23:29;;;;;;;6.90;4.13;;;-0.10;68.70;;;;;;6252369;28;20508;-76
2023/04/03 05:26:32;;;;;;;4.20;3.80;;;0.00;68.60;;;;;;6247132;28;20385;-76
2023/04/03 05:29:35;;;;;;;4.60;3.90;;;0.00;68.40;;;;;;6253569;28;20321;-77
2023/04/03 05:32:38;;;;;;;4.60;4.17;;;0.00;68.40;;;;;;6263454;28;20248;-77
2023/04/03 05:35:43;;;;;;;5.10;4.60;;;0.00;68.30;;;;;;6260112;28;20230;-78
2023/04/03 05:38:48;;;;;;;6.07;4.13;;;0.10;68.00;;;;;;6253907;28;20619;-78
2023/04/03 05:41:52;;;;;;;5.33;4.67;;;0.20;68.20;;;;;;6251887;28;20230;-78
2023/04/03 05:44:55;;;;;;;5.10;4.77;;;0.20;68.10;;;;;;6263599;28;20248;-77
2023/04/03 05:47:58;;;;;;;5.93;3.90;;;0.20;68.00;;;;;;6253687;28;20242;-77
2023/04/03 05:51:01;;;;;;;5.47;4.47;;;0.30;67.70;;;;;;6254847;28;20624;-77
2023/04/03 05:54:14;;;;;;;5.37;4.10;;;0.30;67.60;;;;;;6260954;28;20238;-77
2023/04/03 05:57:17;;;;;;;6.87;4.60;;;0.40;67.70;;;;;;6261441;28;20713;-76
2023/04/03 06:00:21;;;;;;;5.13;4.40;;;0.50;67.40;;;;;;6255282;28;20240;-78
2023/04/03 06:03:25;;;;;;;7.23;4.00;;;0.60;67.50;;;;;;6255922;28;20324;-78
2023/04/03 06:06:44;;;;;;;4.37;4.07;;;0.60;67.20;;;;;;6244955;28;20363;-77
2023/04/03 06:09:49;;;;;;;4.37;4.00;;;0.70;67.00;;;;;;6254166;28;20222;-79
2023/04/03 06:12:52;;;;;;;5.63;4.00;;;0.80;67.10;;;;;;6257240;28;20731;-79
2023/04/03 06:15:56;;;;;;;3.87;3.57;;;1.10;66.00;;;;;;6248399;28;20226;-77
2023/04/03 06:18:59;;;;;;;4.97;4.47;;;1.30;65.80;;;;;;6252082;28;20241;-79
2023/04/03 06:22:03;;;;;;;5.37;4.70;;;1.40;64.90;;;;;;6240971;28;20302;-76
2023/04/03 06:25:09;;;;;;;4.27;3.73;;;1.80;65.80;;;;;;6252928;28;20602;-78
2023/04/03 06:28:14;;;;;;;4.20;3.80;;;2.70;63.40;;;;;;6255889;28;20246;-77
2023/04/03 06:31:17;;;;;;;4.87;3.93;;;3.10;61.60;;;;;;6259314;28;20245;-78
2023/04/03 06:34:21;;;;;;;4.00;3.67;;;3.10;60.50;;;;;;6252815;28;20246;-77
2023/04/03 06:37:25;;;;;;;4.03;3.87;;;3.00;60.00;;;;;;6244569;28;20249;-76
2023/04/03 06:40:30;;;;;;;7.43;4.10;;;2.90;60.70;;;;;;6254300;28;20249;-79
2023/04/03 06:43:33;;;;;;;3.57;3.37;;;2.90;60.70;;;;;;6261458;28;20254;-79
2023/04/03 06:46:36;;;;;;;4.33;3.90;;;2.80;60.70;;;;;;6253564;28;20234;-78
2023/04/03 06:49:41;;;;;;;3.90;3.60;;;2.90;60.20;;;;;;6266583;28;20237;-79
2023/04/03 06:52:44;;;;;;;4.23;3.93;;;2.90;60.10;;;;;;6256950;28;20238;-79
2023/04/03 06:55:49;;;;;;;5.03;3.90;;;3.50;60.50;;;;;;6247215;28;20320;-77
2023/04/03 06:58:54;;;;;;;3.90;3.70;;;4.40;57.50;;;;;;6239509;28;20226;-78
2023/04/03 07:01:58;;;;;;;4.07;3.63;;;4.50;56.70;;;;;;6251299;28;20227;-77
2023/04/03 07:05:01;;;;;;;3.70;3.47;;;4.30;56.20;;;;;;6255495;28;20226;-78
2023/04/03 07:08:04;;;;;;;4.13;3.50;;;4.40;56.30;;;;;;6254471;28;20731;-77
2023/04/03 07:11:09;;;;;;;4.00;3.60;;;5.40;55.00;;;;;;6246817;28;20248;-75
2023/04/03 07:14:13;;;;;;;3.43;3.13;;;5.50;53.30;;;;;;6270228;28;20317;-78
2023/04/03 07:17:17;;;;;;;3.23;3.07;;;5.20;52.80;;;;;;6247759;28;20230;-77
2023/04/03 07:20:20;;;;;;;3.63;3.37;;;4.80;52.80;;;;;;6249303;28;20246;-76
2023/04/03 07:23:24;;;;;;;3.27;3.17;;;4.50;53.50;;;;;;6250079;28;20233;-75
2023/04/03 07:26:29;;;;;;;4.60;3.30;;;4.30;53.90;;;;;;6241906;28;20246;-76
2023/04/03 07:29:32;;;;;;;3.43;3.17;;;4.30;53.70;;;;;;6242561;28;20329;-78
2023/04/03 07:32:36;;;;;;;4.83;3.23;;;4.20;53.60;;;;;;6248488;28;20722;-78
2023/04/03 07:35:39;;;;;;;3.50;3.20;;;4.20;54.00;;;;;;6265722;28;20236;-77
2023/04/03 07:38:43;;;;;;;3.43;3.30;;;4.40;53.80;;;;;;6230592;28;20243;-77
2023/04/03 07:41:47;;;;;;;3.10;2.90;;;4.30;53.60;;;;;;6256282;28;20234;-77
2023/04/03 07:44:51;;;;;;;3.60;3.30;;;4.30;53.80;;;;;;6243402;28;20238;-77
2023/04/03 07:47:54;;;;;;;3.47;3.27;;;4.20;54.00;;;;;;6246590;28;20706;-77
2023/04/03 07:51:00;;;;;;;4.77;3.40;;;4.10;53.70;;;;;;6248666;28;20245;-78
2023/04/03 07:54:03;;;;;;;3.37;3.07;;;4.10;53.20;;;;;;6247084;28;20398;-77
2023/04/03 07:57:09;;;;;;;3.73;3.40;;;4.20;53.40;;;;;;6241829;28;20226;-78
2023/04/03 08:00:14;;;;;;;3.37;3.27;;;4.10;52.90;;;;;;6249694;28;20238;-78
2023/04/03 08:03:17;;;;;;;3.50;3.30;;;4.10;52.60;;;;;;6253563;28;20747;-77
2023/04/03 08:06:20;;;;;;;3.63;3.43;;;4.20;52.20;;;;;;6235985;28;20246;-76
2023/04/03 08:09:39;;;;;;;3.57;3.37;;;4.30;52.10;;;;;;6251774;28;20417;-76
2023/04/03 08:12:47;;;;;;;3.60;3.27;;;4.40;52.30;;;;;;6248198;28;20601;-77
2023/04/03 08:15:50;;;;;;;3.67;3.47;;;4.40;52.50;;;;;;6242262;28;20238;-79
2023/04/03 08:18:54;;;;;;;3.30;3.10;;;4.40;52.60;;;;;;6242082;28;20589;-78
2023/04/03 08:21:58;;;;;;;3.50;3.30;;;4.40;53.40;;;;;;6250744;28;20234;-77
2023/04/03 08:25:01;;;;;;;3.43;3.23;;;4.50;52.80;;;;;;6250750;28;20245;-76
2023/04/03 08:28:06;;;;;;;3.20;3.10;;;4.60;52.30;;;;;;6242913;28;20633;-78
2023/04/03 08:31:12;;;;;;;3.60;3.30;;;4.70;52.30;;;;;;6249137;28;20612;-78
2023/04/03 08:34:16;;;;;;;3.47;3.23;;;4.70;52.20;;;;;;6253748;28;20254;-79
2023/04/03 08:37:19;;;;;;;3.27;3.00;;;4.70;52.10;;;;;;6256803;28;20234;-77
2023/04/03 08:40:22;;;;;;;3.70;3.50;;;4.80;52.20;;;;;;6261057;28;20237;-77
2023/04/03 08:43:37;;;;;;;3.77;3.33;;;4.80;51.70;;;;;;6258199;28;20325;-76
2023/04/03 08:46:57;;;;;;;3.87;3.20;;;4.70;50.90;;;;;;6247558;28;20238;-76
2023/04/03 08:50:02;;;;;;;4.13;3.57;;;4.50;51.70;;;;;;6248196;28;20246;-76
2023/04/03 08:53:13;;;;;;;4.07;3.70;;;4.50;51.40;;;;;;6236616;28;20615;-77
2023/04/03 08:56:17;;;;;;;8.77;4.13;;;4.50;51.40;;;;;;6249799;28;20344;-77
2023/04/03 08:59:28;;;;;;;5.90;4.40;;;4.50;51.50;;;;;;6249949;28;20615;-79
2023/04/03 09:02:35;;;;;;;3.50;3.20;;;4.50;51.50;;;;;;6251856;28;20744;-77
2023/04/03 09:05:46;;;;;;;4.50;3.53;;;4.60;51.70;;;;;;6252609;28;20245;-77
2023/04/03 09:08:56;;;;;;;3.50;3.30;;;4.70;51.50;;;;;;6245491;28;20284;-78
2023/04/03 09:12:11;;;;;;;3.97;3.67;;;4.70;51.40;;;;;;6243221;28;20314;-77
2023/04/03 09:15:21;;;;;;;3.73;3.43;;;4.80;51.20;;;;;;6242526;28;20238;-78
2023/04/03 09:18:46;;;;;;;5.80;4.33;;;5.10;49.90;;;;;;6257229;28;20234;-78
2023/04/03 09:21:50;;;;;;;7.10;3.97;;;5.50;48.70;;;;;;6262865;28;20246;-78
2023/04/03 09:24:59;;;;;;;5.00;3.30;;;5.70;47.30;;;;;;6236873;28;20231;-77
2023/04/03 09:28:03;;;;;;;3.27;3.17;;;5.50;47.60;;;;;;6245955;28;20230;-77
2023/04/03 09:31:20;;;;;;;3.83;3.57;;;5.30;48.00;;;;;;6251492;28;20604;-75
2023/04/03 09:34:26;;;;;;;3.00;2.90;;;5.50;48.90;;;;;;6259158;28;21340;-77
2023/04/03 09:37:39;;;;;;;4.07;3.87;;;5.70;47.70;;;;;;6259430;28;20753;-77
2023/04/03 09:40:45;;;;;;;3.77;3.43;;;6.30;48.20;;;;;;6257073;28;20648;-77
2023/04/03 09:43:54;;;;;;;3.57;3.20;;;6.80;47.20;;;;;;6254426;28;20772;-77
2023/04/03 09:46:58;;;;;;;3.07;2.90;;;7.10;45.80;;;;;;6248242;28;20234;-76
2023/04/03 09:50:20;;;;;;;3.47;3.27;;;7.10;45.50;;;;;;6250965;28;20641;-77
2023/04/03 09:53:32;;;;;;;3.60;3.30;;;6.90;45.50;;;;;;6262459;28;20301;-77
2023/04/03 09:56:35;;;;;;;3.10;3.00;;;6.60;45.70;;;;;;6258301;28;20705;-75
2023/04/03 09:59:44;;;;;;;3.40;3.10;;;6.30;46.00;;;;;;6252007;28;20245;-77
2023/04/03 10:02:52;;;;;;;3.50;3.20;;;6.40;46.60;;;;;;6257333;28;20239;-75
2023/04/03 10:05:57;;;;;;;3.50;3.00;;;6.50;47.20;;;;;;6259912;28;20299;-76
2023/04/03 10:09:04;;;;;;;4.53;2.90;;;6.40;47.00;;;;;;6253822;28;20233;-75
2023/04/03 10:12:10;;;;;;;3.30;3.10;;;6.40;47.50;;;;;;6256975;28;20280;-75
2023/04/03 10:15:14;;;;;;;3.10;3.00;;;6.20;48.00;;;;;;6249006;28;20268;-77
2023/04/03 10:18:38;;;;;;;3.50;3.40;;;6.20;47.50;;;;;;6254022;28;20348;-78
2023/04/03 10:21:49;;;;;;;3.07;2.97;;;6.20;48.20;;;;;;6249089;28;20250;-77
2023/04/03 10:25:01;;;;;;;3.43;3.10;;;6.40;47.70;;;;;;6247514;28;20231;-78
2023/04/03 10:28:10;;;;;;;3.37;3.17;;;6.40;47.30;;;;;;6257512;28;20237;-78
2023/04/03 10:31:18;;;;;;;2.93;2.90;;;6.40;47.20;;;;;;6249813;28;20248;-77
2023/04/03 10:34:27;;;;;;;3.40;3.20;;;6.60;46.60;;;;;;6250436;28;20292;-77
2023/04/03 10:37:36;;;;;;;3.93;3.10;;;6.60;46.20;;;;;;6241306;28;20277;-76
2023/04/03 10:40:51;;;;;;;2.80;2.70;;;6.60;45.80;;;;;;6252660;28;20284;-78
2023/04/03 10:44:07;;;;;;;3.03;2.93;;;6.80;45.70;;;;;;6252222;28;21054;-78
2023/04/03 10:47:16;;;;;;;2.90;2.80;;;6.90;45.50;;;;;;6244883;28;20730;-79
2023/04/03 10:50:45;;;;;;;3.13;3.07;;;6.80;45.50;;;;;;6245935;28;20235;-78
2023/04/03 10:53:56;;;;;;;3.80;2.53;;;7.00;45.60;;;;;;6259685;28;20234;-75
2023/04/03 10:57:03;;;;;;;3.40;3.20;;;7.00;45.80;;;;;;6255728;28;20241;-79
2023/04/03 11:00:20;;;;;;;3.27;3.17;;;6.90;45.50;;;;;;6254814;28;20361;-77
2023/04/03 11:03:31;;;;;;;4.47;3.13;;;6.90;46.20;;;;;;6243909;28;20234;-77
2023/04/03 11:06:40;;;;;;;3.53;3.30;;;7.10;46.20;;;;;;6249401;28;20234;-76
2023/04/03 11:09:47;;;;;;;4.97;2.80;;;7.10;46.30;;;;;;6234546;28;20230;-76
2023/04/03 11:12:57;;;;;;;3.17;2.93;;;7.00;45.50;;;;;;6252314;28;20267;-78
2023/04/03 11:16:01;;;;;;;3.57;3.37;;;7.00;45.70;;;;;;6252153;28;20227;-77
2023/04/03 11:19:12;;;;;;;2.93;2.83;;;7.20;45.80;;;;;;6253819;28;20227;-78
2023/04/03 11:22:24;;;;;;;3.10;2.93;;;7.20;45.50;;;;;;6245612;28;20246;-77
2023/04/03 11:25:32;;;;;;;3.37;3.20;;;7.20;45.30;;;;;;6259718;28;20230;-78
2023/04/03 11:28:37;;;;;;;3.10;3.00;;;7.10;46.60;;;;;;6247267;28;20246;-76
2023/04/03 11:31:56;;;;;;;3.10;3.00;;;7.00;46.20;;;;;;6249153;28;20238;-77
2023/04/03 11:35:02;;;;;;;3.10;2.93;;;7.00;46.50;;;;;;6253463;28;20751;-77
2023/04/03 11:38:07;;;;;;;3.43;3.27;;;6.80;47.00;;;;;;6244826;28;20225;-78
2023/04/03 11:41:12;;;;;;;3.33;3.10;;;7.00;46.70;;;;;;6277654;28;20215;-79
2023/04/03 11:44:37;;;;;;;3.23;3.13;;;7.00;46.60;;;;;;6276774;28;20252;-78
2023/04/03 11:47:49;;;;;;;2.93;2.73;;;7.20;46.20;;;;;;6270579;28;20280;-76
2023/04/03 11:50:53;;;;;;;3.37;2.97;;;7.10;46.70;;;;;;6275621;28;20266;-77
2023/04/03 11:54:37;;;;;;;3.83;3.13;;;7.00;46.40;;;;;;6275961;28;20286;-77
2023/04/03 11:58:03;;;;;;;3.13;3.00;;;7.00;46.90;;;;;;6261398;28;20226;-77
2023/04/03 12:01:09;;;;;;;3.13;2.90;;;7.20;46.50;;;;;;6271513;28;20250;-77
2023/04/03 12:04:15;;;;;;;3.20;3.00;;;7.00;46.70;;;;;;6257324;28;20285;-76
2023/04/03 12:07:20;;;;;;;3.23;3.03;;;7.00;47.00;;;;;;6250314;28;20234;-77
2023/04/03 12:10:25;;;;;;;3.63;3.33;;;7.00;47.40;;;;;;6251468;28;20283;-79
2023/04/03 12:13:35;;;;;;;4.07;3.87;;;7.00;47.40;;;;;;6253883;28;20231;-78
2023/04/03 12:16:45;;;;;;;3.40;3.20;;;7.20;46.40;;;;;;6248638;28;20253;-78
2023/04/03 12:19:48;;;;;;;6.53;4.13;;;7.20;46.40;;;;;;6252278;28;20242;-78
2023/04/03 12:23:23;;;;;;;3.30;3.10;;;7.20;46.80;;;;;;6261723;28;20430;-75
2023/04/03 12:26:33;;;;;;;3.70;2.90;;;7.40;46.70;;;;;;6260020;28;20238;-78
2023/04/03 12:29:59;;;;;;;3.27;3.17;;;7.20;46.50;;;;;;6247272;28;20313;-77
2023/04/03 12:33:19;;;;;;;3.30;3.10;;;7.10;46.50;;;;;;6248848;28;20238;-77
2023/04/03 12:36:31;;;;;;;3.47;2.90;;;7.00;47.00;;;;;;6248579;28;20269;-78
2023/04/03 12:39:54;;;;;;;3.23;3.00;;;7.00;47.50;;;;;;6251269;28;20247;-76
2023/04/03 12:43:37;;;;;;;2.90;2.73;;;7.00;47.20;;;;;;6248378;28;20234;-78
2023/04/03 12:46:45;;;;;;;3.00;2.90;;;6.90;46.60;;;;;;6229084;28;20385;-78
2023/04/03 12:49:50;;;;;;;3.13;3.03;;;7.10;46.20;;;;;;6275564;28;20254;-75
2023/04/03 12:53:03;;;;;;;2.73;2.70;;;7.20;46.10;;;;;;6279889;28;20225;-78
2023/04/03 12:56:25;;;;;;;3.40;3.20;;;7.20;46.20;;;;;;6282789;28;20230;-76
2023/04/03 12:59:29;;;;;;;3.57;3.37;;;7.20;45.80;;;;;;6281101;28;20226;-78
2023/04/03 13:02:34;;;;;;;3.10;3.00;;;6.90;46.00;;;;;;6262409;28;20335;-79
2023/04/03 13:05:37;;;;;;;3.27;3.07;;;6.90;45.80;;;;;;6255834;28;20313;-77
2023/04/03 13:08:49;;;;;;;2.77;2.67;;;6.90;46.90;;;;;;6259288;28;20241;-78
2023/04/03 13:11:58;;;;;;;3.23;3.03;;;7.00;46.00;;;;;;6257131;28;20238;-77
2023/04/03 13:15:13;;;;;;;2.90;2.80;;;6.80;46.90;;;;;;6259338;28;20703;-77
2023/04/03 13:18:25;;;;;;;3.03;2.93;;;6.70;47.00;;;;;;6254826;28;20229;-76
2023/04/03 13:21:31;;;;;;;2.80;2.80;;;6.80;47.20;;;;;;6250330;28;20246;-76
2023/04/03 13:24:39;;;;;;;3.13;3.03;;;6.80;47.00;;;;;;6247023;28;20340;-76
2023/04/03 13:27:44;;;;;;;2.80;2.70;;;6.80;47.00;;;;;;6258675;28;20721;-76
2023/04/03 13:31:01;;;;;;;2.90;2.70;;;6.70;47.60;;;;;;6257080;28;20718;-78
2023/04/03 13:34:08;;;;;;;3.97;2.90;;;6.80;47.80;;;;;;6258713;28;20226;-77
2023/04/03 13:37:23;;;;;;;3.20;3.00;;;6.80;47.50;;;;;;6251654;28;20234;-79
2023/04/03 13:40:26;;;;;;;3.03;2.90;;;6.80;47.30;;;;;;6250267;28;20372;-78
2023/04/03 13:43:36;;;;;;;3.07;2.87;;;6.90;47.10;;;;;;6253256;28;20233;-77
2023/04/03 13:46:40;;;;;;;2.70;2.70;;;6.90;47.10;;;;;;6242117;28;20253;-78
2023/04/03 13:49:45;;;;;;;3.10;3.00;;;6.90;47.00;;;;;;6250195;28;20245;-78
2023/04/03 13:52:52;;;;;;;3.37;3.10;;;6.70;47.20;;;;;;6251401;28;20230;-78
2023/04/03 13:56:00;;;;;;;3.40;3.20;;;6.50;47.60;;;;;;6258843;28;20325;-78
2023/04/03 13:59:21;;;;;;;2.73;2.73;;;6.40;48.70;;;;;;6241533;28;20246;-78
2023/04/03 14:02:33;;;;;;;3.07;2.90;;;6.20;48.50;;;;;;6251177;28;20266;-78
2023/04/03 14:05:36;;;;;;;3.47;2.90;;;6.30;48.70;;;;;;6244905;28;20270;-77
2023/04/03 14:08:40;;;;;;;3.30;3.00;;;6.30;48.90;;;;;;6243878;28;20642;-77
2023/04/03 14:11:47;;;;;;;3.13;3.03;;;6.30;49.00;;;;;;6255850;28;20297;-76
2023/04/03 14:14:50;;;;;;;3.00;2.80;;;6.40;48.70;;;;;;6251535;28;20231;-77
2023/04/03 14:17:55;;;;;;;3.33;3.03;;;6.40;49.00;;;;;;6246165;28;20310;-78
2023/04/03 14:20:58;;;;;;;4.07;3.77;;;6.50;48.90;;;;;;6244963;28;20235;-76
2023/04/03 14:24:01;;;;;;;3.10;3.00;;;6.70;48.80;;;;;;6253071;28;20235;-79
2023/04/03 14:27:12;;;;;;;3.20;3.10;;;6.80;48.20;;;;;;6253303;28;20235;-76
2023/04/03 14:30:18;;;;;;;3.10;3.00;;;6.70;48.20;;;;;;6254366;28;20242;-78
2023/04/03 14:33:26;;;;;;;3.23;3.03;;;6.70;48.00;;;;;;6247966;28;20234;-78
2023/04/03 14:36:31;;;;;;;2.77;2.77;;;6.70;48.30;;;;;;6247486;28;20399;-77
2023/04/03 14:39:35;;;;;;;2.80;2.70;;;7.20;48.30;;;;;;6244014;28;20353;-78
2023/04/03 14:42:38;;;;;;;5.93;3.03;;;7.50;48.20;;;;;;6256479;28;20254;-78
2023/04/03 14:45:42;;;;;;;2.93;2.73;;;7.50;47.50;;;;;;6251474;28;20243;-78
2023/04/03 14:48:47;;;;;;;3.17;2.97;;;7.40;48.00;;;;;;6257509;28;20239;-77
2023/04/03 14:51:50;;;;;;;3.10;3.00;;;7.20;47.60;;;;;;6249305;28;20314;-76
2023/04/03 14:54:54;;;;;;;3.60;3.20;;;6.90;48.00;;;;;;6260265;28;20230;-76
2023/04/03 14:57:57;;;;;;;4.53;3.27;;;6.70;48.30;;;;;;6247124;28;20231;-78
2023/04/03 15:01:00;;;;;;;3.23;3.13;;;6.50;49.00;;;;;;6250525;28;20244;-78
2023/04/03 15:04:12;;;;;;;3.73;3.20;;;6.30;49.30;;;;;;6256839;28;20237;-77
2023/04/03 15:07:15;;;;;;;3.47;3.37;;;6.10;49.80;;;;;;6254090;28;20237;-77
2023/04/03 15:10:21;;;;;;;3.33;3.13;;;6.00;49.90;;;;;;6263117;28;20233;-78
2023/04/03 15:13:25;;;;;;;3.23;3.10;;;5.90;50.40;;;;;;6259102;28;20239;-77
2023/04/03 15:16:28;;;;;;;4.50;3.13;;;5.80;50.80;;;;;;6251781;28;21237;-77
2023/04/03 15:19:38;;;;;;;3.30;3.20;;;5.60;51.50;;;;;;6259503;28;20551;-78
2023/04/03 15:22:41;;;;;;;4.67;3.33;;;5.50;51.60;;;;;;6252667;28;20249;-78
2023/04/03 15:25:48;;;;;;;3.07;2.97;;;5.50;51.80;;;;;;6240388;28;20231;-78
2023/04/03 15:28:51;;;;;;;3.10;3.00;;;5.30;52.30;;;;;;6249279;28;20229;-76
2023/04/03 15:31:54;;;;;;;7.40;3.30;;;5.10;52.80;;;;;;6248915;28;20253;-77
2023/04/03 15:34:59;;;;;;;3.83;3.53;;;5.10;52.80;;;;;;6251473;28;20230;-78
2023/04/03 15:38:02;;;;;;;3.33;3.03;;;5.10;52.70;;;;;;6254674;28;20245;-77
2023/04/03 15:41:05;;;;;;;6.03;3.47;;;5.10;52.90;;;;;;6256592;28;20242;-78
2023/04/03 15:44:08;;;;;;;3.40;2.97;;;5.00;53.20;;;;;;6247322;28;20754;-77
2023/04/03 15:47:12;;;;;;;3.40;3.30;;;5.00;53.70;;;;;;6250839;28;20803;-77
2023/04/03 15:50:16;;;;;;;3.90;3.70;;;4.90;53.60;;;;;;6258236;28;20734;-78
2023/04/03 15:53:19;;;;;;;3.20;3.00;;;4.90;53.30;;;;;;6259128;28;20240;-75
2023/04/03 15:56:23;;;;;;;3.97;3.60;;;5.00;53.60;;;;;;6248433;28;20240;-77
2023/04/03 15:59:26;;;;;;;3.80;3.57;;;5.00;53.20;;;;;;6264763;28;20230;-78
2023/04/03 16:02:29;;;;;;;3.20;3.00;;;5.00;53.00;;;;;;6253844;28;20294;-76
2023/04/03 16:05:35;;;;;;;4.00;3.30;;;5.00;53.40;;;;;;6244486;28;20677;-76
2023/04/03 16:08:38;;;;;;;5.17;3.30;;;4.90;53.20;;;;;;6246077;28;20249;-76
2023/04/03 16:11:41;;;;;;;3.40;3.40;;;4.70;53.10;;;;;;6245059;28;20246;-77
2023/04/03 16:14:44;;;;;;;3.03;2.97;;;4.60;53.50;;;;;;6256536;28;20651;-77
2023/04/03 16:17:48;;;;;;;3.20;3.10;;;4.60;53.40;;;;;;6244828;28;20241;-77
2023/04/03 16:20:53;;;;;;;3.27;3.20;;;4.60;53.50;;;;;;6242402;28;20309;-77